Time;durP1;ratioP1;P1;durP2;ratioP2;P2;SDS_P1;SDS_P2;PMS_P1;PMS_P2;Temp;Humidity;BMP_temperature;BMP_pressure;BME280_temperature;BME280_humidity;BME280_pressure;Samples;Min_cycle;Max_cycle;Signal;HPM_P1;HPM_P2
2021/01/13 00:02:18;;;;;;;8.20;5.03;;;6.90;64.30;;;;;;5013597;28;20082;-78
2021/01/13 00:04:44;;;;;;;16.50;7.90;;;6.80;64.20;;;;;;5013855;28;20447;-78
2021/01/13 00:07:09;;;;;;;16.40;9.30;;;6.90;64.30;;;;;;5013586;28;20095;-78
2021/01/13 00:09:35;;;;;;;20.73;10.70;;;6.80;64.10;;;;;;4994270;28;20027;-79
2021/01/13 00:12:01;;;;;;;11.82;6.82;;;6.80;64.20;;;;;;4994192;28;20089;-78
2021/01/13 00:14:27;;;;;;;16.27;9.50;;;6.90;64.40;;;;;;5010436;28;20034;-78
2021/01/13 00:16:53;;;;;;;16.48;8.57;;;6.80;64.20;;;;;;5013653;28;20383;-78
2021/01/13 00:19:20;;;;;;;22.40;11.10;;;6.80;64.10;;;;;;5013795;28;20026;-79
2021/01/13 00:21:49;;;;;;;35.45;14.40;;;6.80;64.10;;;;;;5029508;28;20553;-79
2021/01/13 00:24:16;;;;;;;41.03;18.35;;;6.80;64.10;;;;;;5026301;28;20030;-79
2021/01/13 00:26:43;;;;;;;31.98;14.43;;;6.80;64.30;;;;;;5028955;28;20018;-78
2021/01/13 00:29:14;;;;;;;16.52;8.45;;;6.90;64.50;;;;;;5028571;28;20041;-78
2021/01/13 00:31:40;;;;;;;9.15;5.85;;;6.80;64.40;;;;;;5025909;28;20097;-79
2021/01/13 00:34:13;;;;;;;7.88;5.30;;;6.90;64.40;;;;;;5027490;28;20034;-78
2021/01/13 00:36:38;;;;;;;9.50;5.75;;;6.90;64.20;;;;;;5025702;28;20033;-79
2021/01/13 00:39:05;;;;;;;7.88;4.55;;;6.90;64.20;;;;;;5027551;28;20034;-78
2021/01/13 00:41:32;;;;;;;6.82;4.43;;;6.80;64.30;;;;;;5016536;28;20521;-79
2021/01/13 00:43:58;;;;;;;4.78;3.53;;;6.90;64.40;;;;;;5013095;28;20021;-79
2021/01/13 00:46:24;;;;;;;5.07;3.90;;;6.90;64.40;;;;;;5012175;28;20545;-79
2021/01/13 00:48:50;;;;;;;6.88;4.63;;;6.90;64.40;;;;;;5012181;28;20026;-78
2021/01/13 00:51:16;;;;;;;9.20;5.30;;;6.90;64.40;;;;;;5013168;28;20510;-78
2021/01/13 00:53:42;;;;;;;5.22;3.97;;;6.90;64.40;;;;;;5013616;28;20030;-79
2021/01/13 00:56:08;;;;;;;4.65;3.65;;;6.90;64.20;;;;;;5013090;28;20030;-78
2021/01/13 00:58:34;;;;;;;9.05;6.40;;;6.90;64.20;;;;;;5011961;28;20049;-79
2021/01/13 01:01:01;;;;;;;12.65;7.38;;;6.90;64.20;;;;;;5012859;28;20093;-78
2021/01/13 01:03:26;;;;;;;6.93;4.65;;;6.90;64.00;;;;;;5011643;28;20103;-78
2021/01/13 01:05:52;;;;;;;7.55;4.85;;;6.90;64.00;;;;;;5012215;28;20029;-79
2021/01/13 01:08:18;;;;;;;5.65;3.90;;;7.00;64.20;;;;;;5012371;28;20050;-79
2021/01/13 01:10:51;;;;;;;5.68;4.30;;;7.00;64.30;;;;;;5011700;28;20376;-79
2021/01/13 01:13:17;;;;;;;7.57;5.03;;;7.00;64.20;;;;;;5016265;28;20022;-79
2021/01/13 01:15:43;;;;;;;6.15;4.47;;;7.00;64.10;;;;;;5008361;28;20364;-79
2021/01/13 01:18:08;;;;;;;6.32;4.82;;;7.00;64.00;;;;;;4995930;28;20022;-79
2021/01/13 01:20:34;;;;;;;6.30;4.72;;;7.00;64.00;;;;;;5001994;28;20214;-79
2021/01/13 01:23:02;;;;;;;9.88;5.90;;;7.00;64.00;;;;;;5011533;28;20387;-79
2021/01/13 01:25:29;;;;;;;19.73;10.85;;;7.00;63.90;;;;;;5013745;28;20029;-78
2021/01/13 01:27:57;;;;;;;15.63;9.27;;;7.00;63.90;;;;;;5015528;28;20025;-79
2021/01/13 01:30:26;;;;;;;15.05;7.97;;;7.00;64.00;;;;;;5015932;28;20050;-79
2021/01/13 01:32:52;;;;;;;8.63;5.35;;;7.00;63.90;;;;;;5030835;28;20109;-78
2021/01/13 01:35:18;;;;;;;5.20;4.38;;;7.00;63.80;;;;;;5015412;28;20026;-79
2021/01/13 01:37:44;;;;;;;4.38;3.58;;;7.00;63.70;;;;;;5015505;28;20072;-79
2021/01/13 01:40:18;;;;;;;4.40;3.40;;;6.90;63.60;;;;;;5014999;28;20109;-79
2021/01/13 01:42:46;;;;;;;4.10;3.10;;;6.90;63.60;;;;;;5015126;28;20029;-79
2021/01/13 01:45:21;;;;;;;9.63;5.80;;;6.90;63.40;;;;;;5015277;28;20030;-79
2021/01/13 01:48:02;;;;;;;14.88;8.07;;;6.80;63.10;;;;;;5014372;28;20026;-79
2021/01/13 01:50:38;;;;;;;114.38;48.42;;;6.80;63.00;;;;;;5015316;28;20029;-79
2021/01/13 01:53:42;;;;;;;136.38;55.30;;;6.70;63.10;;;;;;5015028;28;20379;-78
2021/01/13 01:56:11;;;;;;;62.90;26.42;;;6.60;63.30;;;;;;5015002;28;20026;-79
2021/01/13 01:58:38;;;;;;;15.68;7.95;;;6.60;63.40;;;;;;5015091;28;20022;-79
2021/01/13 02:01:05;;;;;;;6.50;3.95;;;6.60;63.50;;;;;;5012647;28;20022;-79
2021/01/13 02:03:47;;;;;;;4.72;3.75;;;6.50;63.60;;;;;;4999114;28;20026;-79
2021/01/13 02:06:17;;;;;;;5.28;3.50;;;6.50;63.80;;;;;;5014968;28;20028;-79
2021/01/13 02:08:44;;;;;;;4.68;2.75;;;6.50;63.70;;;;;;5014628;28;20030;-78
2021/01/13 02:11:23;;;;;;;5.03;2.97;;;6.50;63.70;;;;;;5014825;28;20032;-79
2021/01/13 02:13:48;;;;;;;7.70;4.65;;;6.60;63.60;;;;;;5014848;28;20049;-78
2021/01/13 02:16:17;;;;;;;8.43;4.13;;;6.60;63.60;;;;;;5014634;28;20518;-79
2021/01/13 02:18:44;;;;;;;4.00;2.78;;;6.50;63.40;;;;;;5014710;28;20076;-78
2021/01/13 02:21:21;;;;;;;6.57;3.90;;;6.50;63.40;;;;;;5012835;28;20060;-79
2021/01/13 02:24:05;;;;;;;8.45;4.55;;;6.50;63.40;;;;;;5013929;28;20022;-79
2021/01/13 02:26:54;;;;;;;;;;;6.50;63.50;;;;;;5013787;28;20030;-79
2021/01/13 02:29:27;;;;;;;4.55;2.70;;;6.60;63.40;;;;;;4995201;28;19905;-79
2021/01/13 02:32:03;;;;;;;3.33;2.38;;;6.50;63.10;;;;;;5014649;28;20026;-78
2021/01/13 02:34:41;;;;;;;5.03;3.15;;;6.60;63.20;;;;;;5014507;28;20105;-78
2021/01/13 02:37:43;;;;;;;3.33;2.80;;;6.60;63.10;;;;;;5014106;28;20068;-78
2021/01/13 02:40:10;;;;;;;5.47;3.35;;;6.50;63.00;;;;;;5013112;28;20018;-79
2021/01/13 02:42:41;;;;;;;5.18;3.38;;;6.60;63.00;;;;;;5029528;28;20049;-78
2021/01/13 02:45:10;;;;;;;4.50;3.40;;;6.50;62.90;;;;;;5029058;28;20034;-78
2021/01/13 02:48:12;;;;;;;3.45;2.92;;;6.50;62.80;;;;;;5013028;28;20081;-78
2021/01/13 02:50:55;;;;;;;4.95;3.38;;;6.50;62.70;;;;;;5014120;28;20406;-79
2021/01/13 02:53:30;;;;;;;4.03;2.87;;;6.50;62.60;;;;;;4994693;28;20446;-79
2021/01/13 02:55:56;;;;;;;4.90;3.40;;;6.40;62.50;;;;;;4994378;28;20285;-79
2021/01/13 02:58:27;;;;;;;3.75;2.70;;;6.40;62.50;;;;;;5009456;28;20026;-79
2021/01/13 03:00:53;;;;;;;7.80;2.70;;;6.30;62.40;;;;;;4993009;28;20022;-78
2021/01/13 03:03:19;;;;;;;4.60;2.67;;;6.30;62.20;;;;;;4994205;28;20488;-78
2021/01/13 03:05:45;;;;;;;4.03;2.75;;;6.20;62.30;;;;;;5013111;28;20149;-79
2021/01/13 03:08:12;;;;;;;4.63;2.53;;;6.10;62.30;;;;;;5013834;28;20518;-78
2021/01/13 03:10:39;;;;;;;2.97;2.33;;;6.00;62.40;;;;;;5013808;28;20026;-78
2021/01/13 03:13:07;;;;;;;3.25;2.58;;;5.90;62.60;;;;;;5012499;28;20084;-78
2021/01/13 03:15:35;;;;;;;5.38;3.10;;;5.90;62.70;;;;;;5012376;28;20501;-78
2021/01/13 03:18:19;;;;;;;4.05;2.63;;;5.80;62.80;;;;;;5013698;28;20026;-78
2021/01/13 03:20:58;;;;;;;3.90;2.72;;;5.70;62.80;;;;;;5028332;28;20050;-78
2021/01/13 03:23:24;;;;;;;6.45;2.85;;;5.70;63.70;;;;;;5028601;28;20476;-78
2021/01/13 03:25:53;;;;;;;4.07;2.88;;;5.60;63.20;;;;;;5013602;28;20030;-78
2021/01/13 03:28:28;;;;;;;4.05;2.55;;;5.50;63.40;;;;;;5012216;28;20030;-78
2021/01/13 03:30:54;;;;;;;4.32;2.83;;;5.50;63.60;;;;;;5013446;28;20030;-78
2021/01/13 03:33:35;;;;;;;4.03;3.08;;;5.50;63.60;;;;;;5012946;28;20053;-78
2021/01/13 03:36:11;;;;;;;4.63;2.72;;;5.40;63.60;;;;;;4993683;28;20105;-78
2021/01/13 03:39:08;;;;;;;3.30;2.38;;;5.30;63.60;;;;;;4993695;28;20529;-78
2021/01/13 03:41:52;;;;;;;6.28;2.35;;;5.30;63.60;;;;;;4993725;28;20037;-78
2021/01/13 03:44:25;;;;;;;;;;;5.20;63.50;;;;;;5016610;28;20178;-78
2021/01/13 03:46:52;;;;;;;4.65;2.88;;;5.20;63.50;;;;;;5013361;28;19910;-79
2021/01/13 03:49:32;;;;;;;5.10;2.58;;;5.10;63.20;;;;;;5011896;28;20494;-78
2021/01/13 03:52:04;;;;;;;7.07;2.75;;;5.10;63.20;;;;;;5013246;28;20386;-78
2021/01/13 03:54:34;;;;;;;3.92;2.60;;;5.10;63.20;;;;;;5017324;28;20030;-79
2021/01/13 03:57:05;;;;;;;4.72;2.50;;;5.00;63.10;;;;;;5011944;28;20038;-78
2021/01/13 03:59:43;;;;;;;7.75;2.40;;;5.00;63.00;;;;;;5012630;28;20527;-78
2021/01/13 04:02:15;;;;;;;3.17;2.40;;;5.00;63.00;;;;;;5012625;28;20034;-78
2021/01/13 04:04:49;;;;;;;5.63;2.78;;;5.00;62.90;;;;;;5013667;28;20022;-78
2021/01/13 04:07:16;;;;;;;4.43;2.47;;;4.90;62.70;;;;;;5029160;28;20045;-78
2021/01/13 04:09:43;;;;;;;5.63;2.67;;;4.90;62.70;;;;;;5012135;28;20034;-78
2021/01/13 04:12:11;;;;;;;8.57;3.13;;;4.90;62.80;;;;;;4992101;28;20031;-77
2021/01/13 04:14:46;;;;;;;3.70;2.50;;;4.80;62.70;;;;;;5019474;28;20037;-78
2021/01/13 04:17:14;;;;;;;5.03;2.85;;;4.80;62.70;;;;;;5028462;28;20475;-78
2021/01/13 04:19:41;;;;;;;7.35;2.92;;;4.80;62.60;;;;;;5013707;28;20046;-78
2021/01/13 04:22:07;;;;;;;4.50;2.75;;;4.80;62.70;;;;;;5028984;28;20028;-79
2021/01/13 04:24:33;;;;;;;4.35;2.20;;;4.80;62.60;;;;;;5012179;28;20029;-79
2021/01/13 04:26:59;;;;;;;5.97;2.60;;;4.80;62.60;;;;;;5013722;28;20471;-79
2021/01/13 04:29:25;;;;;;;3.58;2.22;;;4.80;62.40;;;;;;5013724;28;20030;-78
2021/01/13 04:31:51;;;;;;;8.85;3.05;;;4.80;62.30;;;;;;5014174;28;20025;-78
2021/01/13 04:34:17;;;;;;;5.00;3.03;;;4.70;62.30;;;;;;5012173;28;20052;-78
2021/01/13 04:36:50;;;;;;;7.18;2.90;;;4.70;62.40;;;;;;5013404;28;20494;-78
2021/01/13 04:39:19;;;;;;;8.30;3.10;;;4.60;62.50;;;;;;5013887;28;20375;-78
2021/01/13 04:42:20;;;;;;;8.95;3.28;;;4.60;62.60;;;;;;5028745;28;20053;-78
2021/01/13 04:45:08;;;;;;;6.00;2.80;;;4.60;62.70;;;;;;5012554;28;20029;-78
2021/01/13 04:48:02;;;;;;;7.88;2.53;;;4.60;62.80;;;;;;5032615;28;20060;-78
2021/01/13 04:50:37;;;;;;;7.10;2.78;;;4.50;62.90;;;;;;5017576;28;20388;-79
2021/01/13 04:53:15;;;;;;;4.97;2.80;;;4.60;63.00;;;;;;4999830;28;20092;-78
2021/01/13 04:55:54;;;;;;;8.75;2.78;;;4.60;62.90;;;;;;5016996;28;20029;-78
2021/01/13 04:58:53;;;;;;;6.30;2.60;;;4.50;62.80;;;;;;5017176;28;20053;-78
2021/01/13 05:01:46;;;;;;;6.90;3.20;;;4.50;63.10;;;;;;5017513;28;20026;-78
2021/01/13 05:04:27;;;;;;;6.22;3.25;;;4.50;63.30;;;;;;5016738;28;20655;-78
2021/01/13 05:07:13;;;;;;;11.32;3.00;;;4.50;63.30;;;;;;5016968;28;20535;-79
2021/01/13 05:10:00;;;;;;;4.82;2.85;;;4.50;63.30;;;;;;5016979;28;20033;-78
2021/01/13 05:12:32;;;;;;;5.32;2.60;;;4.50;63.20;;;;;;5015648;28;20448;-79
2021/01/13 05:15:00;;;;;;;5.38;2.67;;;4.50;63.30;;;;;;5015486;28;20403;-78
2021/01/13 05:17:34;;;;;;;5.32;2.83;;;4.50;63.30;;;;;;5015557;28;20036;-78
2021/01/13 05:20:09;;;;;;;2.92;2.20;;;4.60;63.30;;;;;;5016577;28;20065;-78
2021/01/13 05:22:36;;;;;;;6.63;2.60;;;4.70;63.20;;;;;;5016638;28;20384;-78
2021/01/13 05:25:04;;;;;;;4.60;2.70;;;4.80;63.20;;;;;;5031068;28;20033;-78
2021/01/13 05:27:30;;;;;;;4.40;2.47;;;4.80;63.20;;;;;;5015217;28;20044;-78
2021/01/13 05:30:00;;;;;;;4.25;2.63;;;4.90;62.80;;;;;;5031904;28;20030;-78
2021/01/13 05:32:33;;;;;;;3.97;2.25;;;5.00;62.50;;;;;;5016544;28;20026;-79
2021/01/13 05:35:02;;;;;;;7.25;3.00;;;5.00;62.10;;;;;;5016294;28;20072;-79
2021/01/13 05:37:54;;;;;;;10.93;2.80;;;5.10;62.00;;;;;;5016406;28;20091;-79
2021/01/13 05:40:20;;;;;;;5.93;2.90;;;5.10;62.10;;;;;;5016550;28;20014;-78
2021/01/13 05:42:46;;;;;;;7.30;3.10;;;5.20;62.30;;;;;;5016142;28;20064;-78
2021/01/13 05:45:13;;;;;;;6.75;2.63;;;5.20;62.30;;;;;;5015973;28;20022;-78
2021/01/13 05:47:59;;;;;;;5.18;2.22;;;5.30;62.50;;;;;;5016466;28;20030;-78
2021/01/13 05:50:25;;;;;;;4.90;2.78;;;5.30;62.50;;;;;;5016102;28;20058;-78
2021/01/13 05:52:53;;;;;;;6.88;2.63;;;5.40;62.40;;;;;;5016134;28;20439;-78
2021/01/13 05:55:20;;;;;;;7.60;3.33;;;5.50;62.30;;;;;;5015681;28;20026;-78
2021/01/13 05:57:54;;;;;;;9.80;3.72;;;5.50;61.90;;;;;;5015746;28;20030;-78
2021/01/13 06:00:26;;;;;;;11.27;3.92;;;5.50;61.70;;;;;;5016009;28;20093;-78
2021/01/13 06:03:00;;;;;;;7.72;3.38;;;5.60;61.60;;;;;;5016168;28;20033;-78
2021/01/13 06:05:29;;;;;;;;;;;5.60;62.40;;;;;;5016078;28;20468;-78
2021/01/13 06:07:58;;;;;;;4.90;2.80;;;5.60;61.60;;;;;;5031016;28;19919;-78
2021/01/13 06:10:36;;;;;;;8.35;3.75;;;5.60;60.90;;;;;;5015744;28;20026;-78
2021/01/13 06:13:05;;;;;;;9.00;3.80;;;5.60;60.90;;;;;;5014559;28;20029;-78
2021/01/13 06:15:33;;;;;;;6.35;3.20;;;5.60;61.00;;;;;;5015552;28;20030;-78
2021/01/13 06:17:59;;;;;;;7.97;3.47;;;5.60;61.10;;;;;;5015662;28;20018;-78
2021/01/13 06:20:30;;;;;;;6.90;3.25;;;5.60;61.20;;;;;;5014111;28;20057;-78
2021/01/13 06:22:58;;;;;;;7.32;3.72;;;5.60;61.40;;;;;;5030414;28;20633;-78
2021/01/13 06:25:27;;;;;;;9.85;3.85;;;5.60;61.50;;;;;;5015486;28;20054;-78
2021/01/13 06:28:12;;;;;;;7.30;3.42;;;5.60;61.50;;;;;;5015658;28;20022;-78
2021/01/13 06:30:42;;;;;;;8.02;3.83;;;5.60;61.30;;;;;;5015501;28;20022;-78
2021/01/13 06:33:24;;;;;;;6.95;3.38;;;5.70;61.40;;;;;;5015641;28;20026;-78
2021/01/13 06:36:06;;;;;;;6.85;3.65;;;5.60;61.10;;;;;;5013916;28;20022;-78
2021/01/13 06:38:40;;;;;;;11.07;3.80;;;5.70;61.20;;;;;;5015242;28;20498;-79
2021/01/13 06:41:06;;;;;;;5.20;3.33;;;5.70;61.10;;;;;;5015207;28;20018;-78
2021/01/13 06:43:32;;;;;;;8.40;4.05;;;5.70;61.20;;;;;;5014944;28;20176;-78
2021/01/13 06:45:58;;;;;;;7.45;3.88;;;5.70;60.90;;;;;;5015041;28;20036;-78
2021/01/13 06:48:25;;;;;;;10.63;4.30;;;5.70;61.00;;;;;;5015027;28;20387;-78
2021/01/13 06:50:58;;;;;;;15.52;4.90;;;5.70;61.10;;;;;;5014977;28;20037;-78
2021/01/13 06:53:35;;;;;;;8.32;4.28;;;5.70;61.00;;;;;;5014930;28;20351;-79
2021/01/13 06:56:09;;;;;;;9.80;4.45;;;5.80;60.80;;;;;;5014981;28;20030;-79
2021/01/13 06:58:36;;;;;;;7.93;4.47;;;5.80;60.90;;;;;;5015227;28;20382;-79
2021/01/13 07:01:03;;;;;;;7.72;4.55;;;5.80;60.90;;;;;;5014877;28;20049;-78
2021/01/13 07:03:31;;;;;;;11.55;4.72;;;5.80;60.90;;;;;;5014589;28;20017;-79
2021/01/13 07:06:00;;;;;;;8.93;5.30;;;5.80;60.80;;;;;;5014813;28;20104;-79
2021/01/13 07:08:26;;;;;;;8.10;5.00;;;5.80;60.30;;;;;;5014208;28;20021;-78
2021/01/13 07:11:08;;;;;;;12.77;5.50;;;5.90;60.10;;;;;;5015009;28;20471;-79
2021/01/13 07:13:55;;;;;;;10.48;6.47;;;5.80;59.70;;;;;;5013122;28;20125;-79
2021/01/13 07:16:26;;;;;;;10.70;5.30;;;5.80;59.50;;;;;;5014514;28;20026;-78
2021/01/13 07:18:54;;;;;;;11.43;6.07;;;5.90;59.70;;;;;;5014478;28;20069;-78
2021/01/13 07:21:20;;;;;;;12.45;6.00;;;5.90;59.30;;;;;;5012890;28;20092;-78
2021/01/13 07:23:46;;;;;;;14.23;6.60;;;5.90;59.10;;;;;;5029413;28;20471;-78
2021/01/13 07:26:13;;;;;;;12.30;5.93;;;5.90;59.20;;;;;;5014331;28;20037;-78
2021/01/13 07:28:40;;;;;;;11.13;6.05;;;5.90;59.10;;;;;;5014324;28;20096;-78
2021/01/13 07:31:07;;;;;;;15.73;6.72;;;5.90;59.20;;;;;;5014233;28;20049;-78
2021/01/13 07:33:41;;;;;;;17.40;6.50;;;5.90;59.10;;;;;;5013930;28;20145;-78
2021/01/13 07:36:11;;;;;;;;;;;5.90;58.90;;;;;;5014454;28;20029;-78
2021/01/13 07:38:43;;;;;;;14.40;6.53;;;6.00;59.40;;;;;;5014470;28;19909;-78
2021/01/13 07:41:09;;;;;;;11.75;6.65;;;6.00;58.90;;;;;;5029403;28;20022;-78
2021/01/13 07:44:02;;;;;;;15.38;6.57;;;6.10;58.80;;;;;;5013783;28;20527;-78
2021/01/13 07:46:33;;;;;;;14.02;6.50;;;6.10;58.80;;;;;;5013938;28;20112;-78
2021/01/13 07:49:18;;;;;;;13.80;7.22;;;6.10;58.70;;;;;;5012526;28;20475;-78
2021/01/13 07:51:51;;;;;;;10.55;6.50;;;6.10;58.60;;;;;;5012284;28;20030;-78
2021/01/13 07:54:34;;;;;;;11.82;5.90;;;6.10;58.60;;;;;;4993901;28;20069;-78
2021/01/13 07:57:05;;;;;;;15.93;7.10;;;6.20;58.80;;;;;;4997443;28;20037;-78
2021/01/13 07:59:45;;;;;;;16.77;6.65;;;6.30;58.90;;;;;;5013580;28;20084;-78
2021/01/13 08:02:48;;;;;;;11.68;7.65;;;6.30;58.90;;;;;;5013836;28;20028;-78
2021/01/13 08:05:43;;;;;;;7.38;5.63;;;6.40;58.80;;;;;;5014024;28;20026;-78
2021/01/13 08:08:11;;;;;;;11.68;6.38;;;6.40;58.90;;;;;;5014393;28;20018;-78
2021/01/13 08:10:41;;;;;;;10.48;6.72;;;6.50;58.80;;;;;;5013719;28;20148;-78
2021/01/13 08:13:22;;;;;;;13.60;7.03;;;6.50;58.60;;;;;;5028685;28;20107;-79
2021/01/13 08:16:09;;;;;;;15.10;9.07;;;6.50;58.60;;;;;;5028812;28;20022;-78
2021/01/13 08:18:55;;;;;;;21.10;9.68;;;6.60;58.80;;;;;;5028963;28;20096;-79
2021/01/13 08:22:08;;;;;;;14.85;8.57;;;6.60;58.70;;;;;;5016387;28;20041;-78
2021/01/13 08:24:19;;;;;;;12.60;7.70;;;6.60;58.80;;;;;;5000653;28;20038;-78
2021/01/13 08:26:45;;;;;;;12.55;7.75;;;6.70;58.90;;;;;;4998009;28;20030;-79
2021/01/13 08:29:18;;;;;;;11.15;7.85;;;6.70;58.70;;;;;;4998009;28;20026;-79
2021/01/13 08:31:49;;;;;;;13.15;8.20;;;6.70;58.60;;;;;;4998366;28;20430;-79
2021/01/13 08:34:17;;;;;;;12.05;6.93;;;6.80;58.70;;;;;;5017607;28;20033;-78
2021/01/13 08:36:56;;;;;;;16.25;9.13;;;6.80;58.70;;;;;;5016986;28;20406;-79
2021/01/13 08:39:30;;;;;;;12.05;8.20;;;6.90;58.80;;;;;;5017252;28;20072;-78
2021/01/13 08:42:23;;;;;;;15.95;8.43;;;6.90;58.80;;;;;;5017243;28;20026;-78
2021/01/13 08:44:50;;;;;;;15.95;8.98;;;7.00;59.00;;;;;;5017262;28;20426;-78
2021/01/13 08:47:16;;;;;;;15.23;8.80;;;7.10;58.80;;;;;;5015418;28;20091;-78
2021/01/13 08:49:43;;;;;;;11.23;8.07;;;7.10;58.60;;;;;;5015902;28;20033;-78
2021/01/13 08:52:22;;;;;;;13.65;8.10;;;7.10;58.30;;;;;;5017399;28;20097;-79
2021/01/13 08:54:48;;;;;;;13.93;8.27;;;7.20;58.00;;;;;;5016021;28;20030;-78
2021/01/13 08:57:15;;;;;;;14.43;9.05;;;7.20;57.90;;;;;;5032053;28;20022;-79
2021/01/13 08:59:46;;;;;;;12.48;8.13;;;7.20;58.00;;;;;;5015787;28;20112;-79
2021/01/13 09:02:14;;;;;;;19.27;8.77;;;7.20;58.10;;;;;;5017554;28;20164;-79
2021/01/13 09:04:45;;;;;;;17.67;8.77;;;7.30;57.90;;;;;;5036781;28;20466;-78
2021/01/13 09:07:19;;;;;;;13.05;8.23;;;7.40;58.10;;;;;;5027910;28;20135;-80
2021/01/13 09:10:05;;;;;;;13.95;7.72;;;7.40;57.10;;;;;;5017204;28;20030;-79
2021/01/13 09:12:33;;;;;;;12.77;8.27;;;7.50;57.30;;;;;;5016406;28;20040;-79
2021/01/13 09:15:08;;;;;;;14.95;7.93;;;7.60;57.30;;;;;;5016551;28;20030;-79
2021/01/13 09:17:38;;;;;;;21.73;9.45;;;7.70;56.90;;;;;;5031636;28;20479;-79
2021/01/13 09:20:11;;;;;;;23.60;8.50;;;7.80;56.80;;;;;;5015284;28;20186;-79
2021/01/13 09:22:47;;;;;;;11.73;7.55;;;7.90;56.50;;;;;;5016665;28;20096;-79
2021/01/13 09:25:20;;;;;;;14.73;7.65;;;7.90;56.10;;;;;;5016911;28;20045;-79
2021/01/13 09:27:47;;;;;;;12.48;7.88;;;7.90;56.20;;;;;;5016782;28;20056;-79
2021/01/13 09:30:36;;;;;;;13.70;8.05;;;7.90;55.60;;;;;;5016540;28;20110;-77
2021/01/13 09:33:15;;;;;;;13.30;7.43;;;7.90;55.80;;;;;;5016123;28;20385;-77
2021/01/13 09:35:58;;;;;;;16.48;7.93;;;8.00;55.70;;;;;;5016366;28;20446;-77
2021/01/13 09:38:30;;;;;;;12.23;6.80;;;8.00;55.50;;;;;;5015144;28;20026;-77
2021/01/13 09:41:00;;;;;;;9.45;6.07;;;8.10;55.80;;;;;;5015956;28;20025;-76
2021/01/13 09:43:33;;;;;;;13.50;7.15;;;8.20;55.90;;;;;;5031031;28;20041;-77
2021/01/13 09:46:03;;;;;;;18.63;8.10;;;8.30;55.30;;;;;;5016115;28;20041;-78
2021/01/13 09:48:32;;;;;;;12.13;7.47;;;8.30;55.20;;;;;;5016381;28;20026;-77
2021/01/13 09:51:02;;;;;;;13.80;7.35;;;8.40;55.00;;;;;;5031128;28;20036;-77
2021/01/13 09:53:36;;;;;;;8.88;6.18;;;8.50;54.20;;;;;;5016084;28;20031;-78
2021/01/13 09:56:07;;;;;;;16.73;7.53;;;8.50;54.40;;;;;;5014807;28;20442;-77
2021/01/13 09:58:40;;;;;;;12.82;7.32;;;8.50;53.70;;;;;;5016262;28;20018;-77
2021/01/13 10:01:17;;;;;;;11.68;7.47;;;8.40;53.10;;;;;;5015594;28;20499;-77
2021/01/13 10:03:45;;;;;;;13.07;7.00;;;8.40;53.20;;;;;;5014665;28;20114;-78
2021/01/13 10:06:30;;;;;;;12.82;7.63;;;8.40;53.60;;;;;;5016113;28;20083;-77
2021/01/13 10:09:07;;;;;;;17.63;7.97;;;8.40;53.10;;;;;;5016114;28;20022;-78
2021/01/13 10:11:33;;;;;;;16.95;7.63;;;8.30;53.30;;;;;;5015271;28;20415;-78
2021/01/13 10:14:04;;;;;;;10.60;5.97;;;8.30;53.20;;;;;;5015710;28;20108;-78
2021/01/13 10:16:31;;;;;;;18.50;6.55;;;8.30;53.50;;;;;;5015830;28;20379;-77
2021/01/13 10:18:58;;;;;;;12.70;6.85;;;8.30;53.20;;;;;;5014294;28;20459;-77
2021/01/13 10:21:32;;;;;;;19.02;6.95;;;8.30;52.50;;;;;;5015163;28;20053;-78
2021/01/13 10:24:03;;;;;;;8.77;6.03;;;8.30;52.80;;;;;;5015828;28;20049;-78
2021/01/13 10:26:35;;;;;;;12.88;5.80;;;8.30;52.50;;;;;;5015497;28;20037;-77
2021/01/13 10:29:01;;;;;;;12.35;5.95;;;8.30;52.40;;;;;;5015012;28;20514;-78
2021/01/13 10:31:29;;;;;;;14.27;6.35;;;8.20;51.90;;;;;;5014142;28;20073;-77
2021/01/13 10:33:56;;;;;;;12.88;5.75;;;8.20;52.10;;;;;;5014238;28;20030;-78
2021/01/13 10:36:42;;;;;;;11.85;6.35;;;8.20;51.90;;;;;;5015144;28;20033;-78
2021/01/13 10:39:20;;;;;;;9.98;5.88;;;8.20;52.40;;;;;;5014777;28;20025;-77
2021/01/13 10:41:51;;;;;;;13.40;6.82;;;8.30;52.60;;;;;;5013498;28;20026;-79
2021/01/13 10:44:24;;;;;;;12.68;6.00;;;8.40;52.30;;;;;;5027761;28;20018;-78
2021/01/13 10:46:59;;;;;;;11.00;5.80;;;8.50;52.10;;;;;;5033527;28;20505;-78
2021/01/13 10:49:34;;;;;;;10.00;6.60;;;8.50;52.10;;;;;;5014055;28;20398;-78
2021/01/13 10:52:01;;;;;;;13.25;6.38;;;8.50;51.60;;;;;;5014821;28;20542;-78
2021/01/13 10:54:33;;;;;;;11.45;6.07;;;8.60;51.40;;;;;;5009891;28;20057;-78
2021/01/13 10:57:07;;;;;;;13.30;6.45;;;8.50;51.50;;;;;;5002567;28;20029;-77
2021/01/13 10:59:33;;;;;;;14.15;6.22;;;8.50;51.90;;;;;;5012242;28;20029;-78
2021/01/13 11:02:10;;;;;;;13.85;6.53;;;8.50;52.10;;;;;;5013951;28;20386;-77
2021/01/13 11:04:42;;;;;;;16.13;6.55;;;8.50;51.80;;;;;;5028771;28;20030;-77
2021/01/13 11:07:14;;;;;;;12.18;5.88;;;8.40;51.80;;;;;;5013707;28;20084;-78
2021/01/13 11:09:42;;;;;;;13.10;6.90;;;8.40;51.90;;;;;;5028871;28;20033;-78
2021/01/13 11:12:09;;;;;;;14.35;6.68;;;8.30;52.10;;;;;;5012408;28;20026;-77
2021/01/13 11:14:37;;;;;;;13.98;6.32;;;8.30;52.00;;;;;;5013660;28;20034;-78
2021/01/13 11:17:04;;;;;;;13.98;6.13;;;8.30;52.20;;;;;;5013326;28;20026;-78
2021/01/13 11:19:31;;;;;;;11.75;5.88;;;8.20;52.30;;;;;;5012991;28;20025;-78
2021/01/13 11:21:58;;;;;;;15.68;6.00;;;8.30;52.30;;;;;;5012687;28;20033;-77
2021/01/13 11:24:32;;;;;;;11.93;6.70;;;8.30;52.60;;;;;;5013235;28;20026;-78
2021/01/13 11:27:09;;;;;;;12.95;6.25;;;8.30;52.40;;;;;;5029456;28;20387;-77
2021/01/13 11:29:37;;;;;;;15.40;6.55;;;8.40;52.10;;;;;;5013733;28;20040;-78
2021/01/13 11:32:05;;;;;;;12.45;5.50;;;8.40;51.70;;;;;;5019264;28;20026;-78
2021/01/13 11:34:31;;;;;;;15.82;5.15;;;8.40;51.40;;;;;;5012461;28;20030;-77
2021/01/13 11:37:23;;;;;;;13.00;5.32;;;8.40;51.70;;;;;;5012626;28;20038;-77
2021/01/13 11:40:24;;;;;;;14.48;5.28;;;8.50;51.40;;;;;;5010361;28;20023;-78
2021/01/13 11:43:21;;;;;;;14.85;5.93;;;8.40;51.50;;;;;;5011493;28;20529;-78
2021/01/13 11:46:14;;;;;;;14.57;5.35;;;8.40;52.00;;;;;;4999632;28;20044;-78
2021/01/13 11:48:59;;;;;;;17.75;5.60;;;8.40;52.10;;;;;;5012335;28;20021;-78
2021/01/13 11:51:31;;;;;;;11.05;4.90;;;8.40;52.20;;;;;;5024582;28;20038;-78
2021/01/13 11:53:57;;;;;;;10.25;4.65;;;8.40;52.20;;;;;;4997140;28;20430;-78
2021/01/13 11:56:30;;;;;;;9.05;4.50;;;8.20;53.40;;;;;;5012976;28;20052;-78
2021/01/13 11:58:57;;;;;;;11.33;4.43;;;8.20;54.40;;;;;;5011522;28;20117;-78
2021/01/13 12:01:25;;;;;;;11.52;4.88;;;8.00;54.70;;;;;;5017696;28;20577;-78
2021/01/13 12:04:04;;;;;;;11.93;4.93;;;8.00;55.00;;;;;;5031487;28;20030;-78
2021/01/13 12:06:30;;;;;;;15.65;5.32;;;7.90;55.60;;;;;;5016941;28;20125;-78
2021/01/13 12:08:57;;;;;;;19.08;5.80;;;7.70;55.30;;;;;;5022702;28;20021;-79
2021/01/13 12:11:23;;;;;;;14.93;4.68;;;7.50;55.60;;;;;;5021686;28;20081;-77
2021/01/13 12:13:49;;;;;;;16.60;5.18;;;7.40;56.00;;;;;;5023886;28;20049;-77
2021/01/13 12:16:20;;;;;;;9.35;4.43;;;7.40;56.60;;;;;;5011688;28;20030;-77
2021/01/13 12:18:50;;;;;;;22.02;4.70;;;7.30;57.20;;;;;;5012137;28;20487;-78
2021/01/13 12:21:15;;;;;;;11.35;4.25;;;7.30;57.60;;;;;;5011584;28;20054;-77
2021/01/13 12:23:42;;;;;;;13.07;5.55;;;7.30;57.80;;;;;;5010952;28;20113;-77
2021/01/13 12:26:35;;;;;;;14.13;5.47;;;7.30;58.00;;;;;;5013127;28;20045;-77
2021/01/13 12:29:01;;;;;;;8.82;4.55;;;7.30;58.20;;;;;;5011707;28;20040;-77
2021/01/13 12:31:38;;;;;;;8.85;5.35;;;7.30;58.50;;;;;;5013269;28;20030;-76
2021/01/13 12:34:14;;;;;;;11.18;4.78;;;7.30;58.50;;;;;;5005587;28;20104;-76
2021/01/13 12:36:43;;;;;;;17.60;5.75;;;7.40;58.60;;;;;;5011601;28;20124;-75
2021/01/13 12:39:21;;;;;;;13.75;5.22;;;7.40;58.00;;;;;;5012404;28;20018;-76
2021/01/13 12:41:50;;;;;;;14.23;5.28;;;7.50;58.20;;;;;;5005751;28;20069;-76
2021/01/13 12:44:16;;;;;;;11.02;4.85;;;7.50;58.00;;;;;;5012466;28;20559;-76
2021/01/13 12:46:57;;;;;;;10.20;5.40;;;7.40;57.90;;;;;;5004885;28;20108;-77
2021/01/13 12:49:26;;;;;;;9.68;5.03;;;7.40;57.80;;;;;;5012041;28;20026;-76
2021/01/13 12:51:57;;;;;;;10.90;4.25;;;7.40;57.90;;;;;;5012443;28;20034;-76
2021/01/13 12:54:24;;;;;;;12.05;5.78;;;7.30;58.10;;;;;;5012427;28;20026;-76
2021/01/13 12:56:51;;;;;;;12.20;5.65;;;7.30;58.50;;;;;;5012270;28;20399;-76
2021/01/13 12:59:17;;;;;;;13.32;4.97;;;7.40;58.70;;;;;;5010580;28;20029;-76
2021/01/13 13:01:45;;;;;;;9.98;5.65;;;7.40;58.90;;;;;;5012631;28;20025;-76
2021/01/13 13:04:12;;;;;;;10.57;4.97;;;7.40;59.00;;;;;;5027819;28;20022;-76
2021/01/13 13:06:38;;;;;;;14.73;5.88;;;7.40;58.80;;;;;;5018804;28;20033;-76
2021/01/13 13:09:10;;;;;;;14.50;5.95;;;7.40;58.50;;;;;;5011402;28;20026;-75
2021/01/13 13:11:37;;;;;;;12.80;4.90;;;7.50;58.30;;;;;;5016022;28;20025;-76
2021/01/13 13:14:03;;;;;;;10.38;4.75;;;7.50;58.30;;;;;;5000472;28;20018;-76
2021/01/13 13:16:29;;;;;;;12.07;5.63;;;7.50;58.50;;;;;;5025084;28;20036;-76
2021/01/13 13:18:56;;;;;;;13.25;5.03;;;7.60;58.50;;;;;;5025234;28;20022;-76
2021/01/13 13:21:23;;;;;;;12.32;4.57;;;7.60;58.40;;;;;;5015656;28;20049;-76